Time;durP1;ratioP1;P1;durP2;ratioP2;P2;SDS_P1;SDS_P2;PMS_P1;PMS_P2;Temp;Humidity;BMP_temperature;BMP_pressure;BME280_temperature;BME280_humidity;BME280_pressure;Samples;Min_cycle;Max_cycle;Signal;HPM_P1;HPM_P2
2022/03/22 00:01:31;;;;;;;116.28;53.55;;;;;;;;;;5080905;28;20191;-92
2022/03/22 00:04:02;;;;;;;116.80;56.65;;;;;;;;;;5064375;28;20753;-92
2022/03/22 00:06:28;;;;;;;112.80;52.85;;;;;;;;;;5075531;28;20192;-93
2022/03/22 00:08:56;;;;;;;117.30;54.95;;;;;;;;;;5085324;28;20226;-94
2022/03/22 00:11:23;;;;;;;116.03;53.05;;;;;;;;;;5083934;28;20200;-92
2022/03/22 00:13:49;;;;;;;111.43;52.17;;;;;;;;;;5084354;28;20281;-91
2022/03/22 00:16:16;;;;;;;111.05;52.90;;;;;;;;;;5084010;28;20200;-91
2022/03/22 00:18:42;;;;;;;110.70;52.35;;;;;;;;;;5067618;28;20277;-93
2022/03/22 00:21:09;;;;;;;123.00;54.60;;;;;;;;;;5071126;28;20199;-93
2022/03/22 00:23:35;;;;;;;111.32;53.15;;;;;;;;;;5084765;28;20195;-90
2022/03/22 00:26:03;;;;;;;118.90;53.05;;;;;;;;;;5084172;28;20196;-92
2022/03/22 00:28:30;;;;;;;112.70;53.63;;;;;;;;;;5085457;28;20281;-92
2022/03/22 00:30:57;;;;;;;110.68;52.72;;;;;;;;;;5085956;28;20298;-94
2022/03/22 00:33:23;;;;;;;110.80;52.47;;;;;;;;;;5069525;28;20259;-93
2022/03/22 00:35:50;;;;;;;110.72;53.97;;;;;;;;;;5066626;28;20196;-90
2022/03/22 00:38:18;;;;;;;114.30;52.45;;;;;;;;;;5083913;28;20290;-92
2022/03/22 00:40:45;;;;;;;119.97;55.78;;;;;;;;;;5083307;28;20200;-90
2022/03/22 00:43:13;;;;;;;108.50;54.58;;;;;;;;;;5084193;28;20204;-91
2022/03/22 00:45:40;;;;;;;119.43;52.10;;;;;;;;;;5084836;28;20233;-92
2022/03/22 00:48:07;;;;;;;107.15;52.53;;;;;;;;;;5072811;28;20231;-93
2022/03/22 00:50:35;;;;;;;106.72;52.60;;;;;;;;;;5065192;28;20228;-94
2022/03/22 00:53:04;;;;;;;111.07;52.67;;;;;;;;;;5084830;28;20221;-92
2022/03/22 00:55:30;;;;;;;108.15;52.70;;;;;;;;;;5085219;28;20241;-91
2022/03/22 00:57:57;;;;;;;112.13;51.45;;;;;;;;;;5084650;28;20231;-93
2022/03/22 01:00:26;;;;;;;107.40;52.45;;;;;;;;;;5084905;28;20199;-92
2022/03/22 01:02:53;;;;;;;109.93;51.75;;;;;;;;;;5073981;28;20580;-93
2022/03/22 01:05:20;;;;;;;109.22;51.55;;;;;;;;;;5049270;28;20228;-91
2022/03/22 01:07:47;;;;;;;113.22;53.33;;;;;;;;;;5061741;28;20288;-93
2022/03/22 01:10:15;;;;;;;109.30;51.22;;;;;;;;;;5065250;28;20204;-92
2022/03/22 01:12:43;;;;;;;106.40;51.67;;;;;;;;;;5064716;28;20203;-91
2022/03/22 01:15:11;;;;;;;109.97;51.30;;;;;;;;;;5064034;28;20227;-92
2022/03/22 01:17:39;;;;;;;115.93;52.70;;;;;;;;;;5064349;28;20295;-93
2022/03/22 01:20:09;;;;;;;176.70;58.83;;;;;;;;;;5064685;28;20204;-93
2022/03/22 01:22:38;;;;;;;137.30;55.90;;;;;;;;;;5064343;28;20197;-92
2022/03/22 01:25:05;;;;;;;146.82;57.38;;;;;;;;;;5062717;28;20196;-90
2022/03/22 01:27:32;;;;;;;146.80;57.63;;;;;;;;;;5062656;28;20224;-90
2022/03/22 01:29:58;;;;;;;147.35;56.10;;;;;;;;;;5064238;28;20668;-92
2022/03/22 01:32:25;;;;;;;163.68;57.65;;;;;;;;;;5063934;28;20320;-92
2022/03/22 01:34:53;;;;;;;173.15;57.83;;;;;;;;;;5064452;28;20270;-91
2022/03/22 01:37:20;;;;;;;207.38;61.00;;;;;;;;;;5064382;28;20200;-92
2022/03/22 01:39:46;;;;;;;186.32;59.25;;;;;;;;;;5064292;28;20204;-93
2022/03/22 01:42:12;;;;;;;184.15;58.90;;;;;;;;;;5064068;28;20250;-94
2022/03/22 01:44:39;;;;;;;193.82;59.45;;;;;;;;;;5064230;28;20200;-94
2022/03/22 01:47:06;;;;;;;224.27;61.78;;;;;;;;;;5063295;28;20196;-92
2022/03/22 01:49:33;;;;;;;182.55;58.33;;;;;;;;;;5063770;28;20228;-92
2022/03/22 01:52:01;;;;;;;149.63;57.53;;;;;;;;;;5064179;28;20678;-93
2022/03/22 01:54:28;;;;;;;156.10;56.35;;;;;;;;;;5064027;28;20513;-93
2022/03/22 01:56:54;;;;;;;152.55;57.20;;;;;;;;;;5063851;28;20245;-93
2022/03/22 01:59:21;;;;;;;149.32;57.75;;;;;;;;;;5064102;28;20269;-93
2022/03/22 02:07:17;;;;;;;147.35;56.80;;;;;;;;;;5063832;28;20230;-94
2022/03/22 02:09:43;;;;;;;136.10;57.05;;;;;;;;;;5063595;28;20258;-93
2022/03/22 02:12:10;;;;;;;137.20;56.10;;;;;;;;;;5063768;28;20705;-94
2022/03/22 02:14:37;;;;;;;140.27;58.25;;;;;;;;;;5062154;28;20204;-94
2022/03/22 02:17:07;;;;;;;136.35;56.50;;;;;;;;;;5061764;28;20192;-95
2022/03/22 02:19:33;;;;;;;145.93;57.05;;;;;;;;;;5063340;28;20203;-92
2022/03/22 02:22:02;;;;;;;140.48;56.95;;;;;;;;;;5063243;28;20204;-94
2022/03/22 02:24:30;;;;;;;142.43;57.28;;;;;;;;;;5063121;28;20188;-92
2022/03/22 02:26:56;;;;;;;151.90;57.00;;;;;;;;;;5062783;28;20836;-92
2022/03/22 02:29:23;;;;;;;155.50;56.95;;;;;;;;;;5063301;28;20263;-93
2022/03/22 02:31:49;;;;;;;156.52;59.58;;;;;;;;;;5063105;28;20253;-93
2022/03/22 02:34:18;;;;;;;157.93;57.05;;;;;;;;;;5062964;28;20230;-93
2022/03/22 02:36:44;;;;;;;164.00;59.13;;;;;;;;;;5062035;28;20195;-93
2022/03/22 02:39:11;;;;;;;165.07;57.03;;;;;;;;;;5061659;28;20200;-94
2022/03/22 02:41:39;;;;;;;176.65;58.47;;;;;;;;;;5062327;28;20597;-95
2022/03/22 02:44:06;;;;;;;179.50;61.63;;;;;;;;;;5063142;28;20249;-93
2022/03/22 02:46:32;;;;;;;166.88;56.60;;;;;;;;;;5063564;28;20552;-92
2022/03/22 02:48:59;;;;;;;176.43;57.80;;;;;;;;;;5062810;28;20228;-94
2022/03/22 02:51:25;;;;;;;174.10;59.70;;;;;;;;;;5063002;28;20211;-93
2022/03/22 02:53:52;;;;;;;194.70;60.30;;;;;;;;;;5042620;28;20200;-94
2022/03/22 02:56:19;;;;;;;167.13;56.85;;;;;;;;;;5041177;28;20600;-94
2022/03/22 02:58:47;;;;;;;186.68;59.30;;;;;;;;;;5061425;28;20234;-93
2022/03/22 03:01:14;;;;;;;186.98;59.15;;;;;;;;;;5062858;28;20200;-92
2022/03/22 03:03:40;;;;;;;215.80;60.05;;;;;;;;;;5062990;28;20200;-93
2022/03/22 03:06:07;;;;;;;229.13;61.33;;;;;;;;;;5063368;28;20201;-94
2022/03/22 03:08:33;;;;;;;207.13;59.40;;;;;;;;;;5062660;28;20319;-93
2022/03/22 03:11:00;;;;;;;212.40;59.92;;;;;;;;;;5062466;28;20250;-94
2022/03/22 03:14:38;;;;;;;196.63;58.75;;;;;;;;;;5063101;28;20196;-94
2022/03/22 03:16:14;;;;;;;199.32;58.58;;;;;;;;;;5062802;28;20196;-95
2022/03/22 03:18:41;;;;;;;336.35;66.43;;;;;;;;;;5062512;28;20199;-94
2022/03/22 03:21:07;;;;;;;170.77;56.72;;;;;;;;;;5062685;28;20652;-95
2022/03/22 03:23:33;;;;;;;189.88;58.75;;;;;;;;;;5062621;28;20452;-94
2022/03/22 03:26:00;;;;;;;162.23;57.00;;;;;;;;;;5062284;28;20227;-94
2022/03/22 03:28:26;;;;;;;166.95;58.55;;;;;;;;;;5062866;28;20216;-94
2022/03/22 03:30:53;;;;;;;179.82;57.92;;;;;;;;;;5062973;28;20235;-95
2022/03/22 03:33:21;;;;;;;291.30;61.75;;;;;;;;;;5062551;28;20199;-95
2022/03/22 03:35:47;;;;;;;160.07;57.45;;;;;;;;;;5062130;28;20204;-95
2022/03/22 03:38:14;;;;;;;158.70;57.75;;;;;;;;;;5064044;28;20263;-95
2022/03/22 03:43:24;;;;;;;78.28;22.40;;;;;;;;;;5066181;28;20652;-94
2022/03/22 03:48:37;;;;;;;137.32;55.15;;;;;;;;;;5065221;28;20289;-95
2022/03/22 03:51:04;;;;;;;133.70;54.10;;;;;;;;;;5066149;28;20200;-94
2022/03/22 03:53:30;;;;;;;134.88;55.45;;;;;;;;;;5065741;28;20234;-93
2022/03/22 03:55:57;;;;;;;129.27;53.58;;;;;;;;;;5065172;28;20204;-94
2022/03/22 03:58:23;;;;;;;127.95;54.15;;;;;;;;;;5065723;28;20289;-94
2022/03/22 04:00:50;;;;;;;137.10;56.25;;;;;;;;;;5066322;28;20261;-94
2022/03/22 04:03:16;;;;;;;135.68;55.58;;;;;;;;;;5065656;28;20231;-91
2022/03/22 04:05:44;;;;;;;139.55;56.58;;;;;;;;;;5064469;28;20200;-91
2022/03/22 04:08:11;;;;;;;129.65;55.05;;;;;;;;;;5064029;28;20218;-95
2022/03/22 04:10:37;;;;;;;136.65;55.55;;;;;;;;;;5064414;28;20208;-95
2022/03/22 04:13:04;;;;;;;128.00;55.75;;;;;;;;;;5064392;28;20200;-95
2022/03/22 04:15:31;;;;;;;138.52;56.97;;;;;;;;;;5065059;28;20199;-95
2022/03/22 04:17:59;;;;;;;132.55;56.35;;;;;;;;;;5065068;28;20210;-94
2022/03/22 04:20:25;;;;;;;127.18;54.95;;;;;;;;;;5065905;28;20263;-95
2022/03/22 04:22:53;;;;;;;132.90;55.75;;;;;;;;;;5065388;28;20227;-96
2022/03/22 04:25:20;;;;;;;136.15;55.83;;;;;;;;;;5063509;28;20196;-93
2022/03/22 04:33:14;;;;;;;126.57;53.63;;;;;;;;;;5065774;28;20096;-95
2022/03/22 04:35:41;;;;;;;129.73;55.15;;;;;;;;;;5065339;28;20517;-93
2022/03/22 04:38:08;;;;;;;121.30;53.63;;;;;;;;;;5065336;28;20200;-94
2022/03/22 04:40:35;;;;;;;126.28;55.45;;;;;;;;;;5064885;28;20200;-92
2022/03/22 04:43:02;;;;;;;120.32;53.85;;;;;;;;;;5065341;28;20235;-91
2022/03/22 04:45:28;;;;;;;119.60;53.05;;;;;;;;;;5064741;28;20257;-91
2022/03/22 04:47:55;;;;;;;123.57;55.58;;;;;;;;;;5069584;28;20199;-96
2022/03/22 04:50:21;;;;;;;123.25;54.10;;;;;;;;;;5081618;28;20223;-92
2022/03/22 04:58:17;;;;;;;123.10;54.95;;;;;;;;;;5083829;28;20238;-94
2022/03/22 05:00:46;;;;;;;126.28;55.58;;;;;;;;;;5084937;28;20199;-93
2022/03/22 05:03:12;;;;;;;123.50;54.60;;;;;;;;;;5079278;28;20230;-94
2022/03/22 05:08:22;;;;;;;124.68;54.75;;;;;;;;;;5084971;28;20233;-92
2022/03/22 05:10:50;;;;;;;125.72;56.45;;;;;;;;;;5085101;28;20196;-94
2022/03/22 05:13:17;;;;;;;128.10;55.53;;;;;;;;;;5084417;28;20191;-95
2022/03/22 05:15:43;;;;;;;121.97;55.13;;;;;;;;;;5084147;28;20227;-95
2022/03/22 05:18:10;;;;;;;122.28;54.95;;;;;;;;;;5077084;28;20222;-93
2022/03/22 05:20:36;;;;;;;130.13;54.75;;;;;;;;;;5084059;28;20229;-95
2022/03/22 05:23:03;;;;;;;122.25;53.97;;;;;;;;;;5079126;28;20684;-96
2022/03/22 05:25:31;;;;;;;132.57;56.83;;;;;;;;;;5066737;28;20204;-95
2022/03/22 05:28:00;;;;;;;131.65;56.15;;;;;;;;;;5064886;28;20283;-96
2022/03/22 05:30:27;;;;;;;126.93;54.65;;;;;;;;;;5063862;28;20254;-94
2022/03/22 05:32:54;;;;;;;119.22;51.63;;;;;;;;;;5063210;28;20200;-96
2022/03/22 05:35:20;;;;;;;225.90;92.40;;;;;;;;;;5065924;28;20200;-96
2022/03/22 05:37:47;;;;;;;153.18;59.78;;;;;;;;;;5064457;28;20230;-92
2022/03/22 05:40:13;;;;;;;165.48;71.28;;;;;;;;;;5064284;28;20668;-91
2022/03/22 05:42:40;;;;;;;191.88;69.00;;;;;;;;;;5066555;28;20204;-96
2022/03/22 05:45:11;;;;;;;208.18;79.18;;;;;;;;;;5083656;28;20570;-95
2022/03/22 05:47:38;;;;;;;170.88;64.80;;;;;;;;;;5075322;28;20256;-95
2022/03/22 05:50:05;;;;;;;140.70;58.35;;;;;;;;;;5083184;28;20226;-94
2022/03/22 05:52:32;;;;;;;170.23;69.28;;;;;;;;;;5083276;28;20253;-96
2022/03/22 05:54:58;;;;;;;198.20;76.93;;;;;;;;;;5083848;28;20245;-95
2022/03/22 05:57:25;;;;;;;158.68;63.97;;;;;;;;;;5083782;28;20231;-89
2022/03/22 05:59:51;;;;;;;138.73;58.45;;;;;;;;;;5058542;28;20633;-95
2022/03/22 06:02:19;;;;;;;145.15;60.45;;;;;;;;;;5046568;28;20258;-94
2022/03/22 06:04:48;;;;;;;141.35;60.13;;;;;;;;;;5063386;28;20699;-96
2022/03/22 06:07:14;;;;;;;147.85;61.88;;;;;;;;;;5063964;28;20200;-96
2022/03/22 06:09:41;;;;;;;138.55;58.65;;;;;;;;;;5071017;28;20246;-96
2022/03/22 06:12:08;;;;;;;149.77;63.50;;;;;;;;;;5063701;28;20220;-96
2022/03/22 06:14:34;;;;;;;136.77;57.67;;;;;;;;;;5063754;28;20230;-95
2022/03/22 06:17:01;;;;;;;138.75;58.78;;;;;;;;;;5062226;28;20196;-92
2022/03/22 06:19:29;;;;;;;144.90;62.42;;;;;;;;;;5060737;28;20200;-96
2022/03/22 06:21:55;;;;;;;145.10;57.80;;;;;;;;;;5061723;28;20218;-92
2022/03/22 06:24:22;;;;;;;137.52;57.70;;;;;;;;;;5061069;28;20725;-90
2022/03/22 06:26:48;;;;;;;144.82;60.80;;;;;;;;;;5061613;28;20672;-91
2022/03/22 06:29:15;;;;;;;144.90;59.78;;;;;;;;;;5060335;28;20227;-90
2022/03/22 06:31:41;;;;;;;197.20;66.63;;;;;;;;;;5058924;28;20196;-90
2022/03/22 06:34:08;;;;;;;168.95;59.15;;;;;;;;;;5061847;28;20200;-89
2022/03/22 06:36:35;;;;;;;168.27;59.80;;;;;;;;;;5061618;28;20195;-93
2022/03/22 06:39:02;;;;;;;157.75;60.25;;;;;;;;;;5061673;28;20195;-91
2022/03/22 06:41:28;;;;;;;168.10;62.20;;;;;;;;;;5061649;28;20196;-89
2022/03/22 06:43:55;;;;;;;167.63;63.30;;;;;;;;;;5063899;28;20218;-93
2022/03/22 06:46:22;;;;;;;161.67;60.23;;;;;;;;;;5062840;28;21004;-91
2022/03/22 06:48:49;;;;;;;150.87;58.93;;;;;;;;;;5062625;28;20509;-91
2022/03/22 06:51:15;;;;;;;153.50;59.77;;;;;;;;;;5062914;28;20449;-89
2022/03/22 06:53:43;;;;;;;151.47;60.40;;;;;;;;;;5062226;28;20469;-91
2022/03/22 06:56:10;;;;;;;160.20;63.40;;;;;;;;;;5061006;28;20459;-90
2022/03/22 06:58:36;;;;;;;152.03;60.20;;;;;;;;;;5060849;28;20474;-93
2022/03/22 07:01:04;;;;;;;161.70;66.10;;;;;;;;;;5059918;28;20964;-94
2022/03/22 07:03:32;;;;;;;151.27;60.57;;;;;;;;;;5060495;28;20442;-88
2022/03/22 07:05:59;;;;;;;147.40;59.75;;;;;;;;;;5061360;28;20457;-90
2022/03/22 07:08:25;;;;;;;155.70;60.97;;;;;;;;;;5061289;28;20447;-95
2022/03/22 07:13:37;;;;;;;163.63;64.30;;;;;;;;;;5066828;28;20436;-91
2022/03/22 07:16:04;;;;;;;155.53;61.63;;;;;;;;;;5079445;28;20465;-89
2022/03/22 07:18:30;;;;;;;164.37;64.20;;;;;;;;;;5064902;28;20443;-88
2022/03/22 07:20:59;;;;;;;157.03;62.20;;;;;;;;;;5064175;28;20480;-91
2022/03/22 07:23:25;;;;;;;163.63;65.70;;;;;;;;;;5064464;28;20458;-89
2022/03/22 07:25:53;;;;;;;163.73;64.20;;;;;;;;;;5064286;28;20456;-89
2022/03/22 07:28:21;;;;;;;160.10;66.03;;;;;;;;;;5065236;28;20449;-88
2022/03/22 07:30:48;;;;;;;161.27;66.27;;;;;;;;;;5084015;28;20492;-89
2022/03/22 07:33:15;;;;;;;176.90;67.80;;;;;;;;;;5062526;28;20484;-92
2022/03/22 07:35:42;;;;;;;186.00;74.97;;;;;;;;;;5078647;28;20433;-90
2022/03/22 07:38:08;;;;;;;175.30;65.57;;;;;;;;;;5085333;28;20253;-89
2022/03/22 07:40:35;;;;;;;164.07;63.17;;;;;;;;;;5086499;28;20473;-90
2022/03/22 07:43:03;;;;;;;180.43;65.87;;;;;;;;;;5087044;28;20982;-87
2022/03/22 07:45:29;;;;;;;166.17;63.40;;;;;;;;;;5083007;28;20445;-95
2022/03/22 07:47:56;;;;;;;173.83;67.63;;;;;;;;;;5072634;28;20489;-90
2022/03/22 07:53:10;;;;;;;164.87;64.90;;;;;;;;;;5083519;28;20451;-91
2022/03/22 07:55:36;;;;;;;;;;;;;;;;;;5083989;28;20472;-88
2022/03/22 07:58:05;;;;;;;;;;;;;;;;;;5084747;28;20437;-88
2022/03/22 08:00:31;;;;;;;;;;;;;;;;;;5086077;28;20349;-89
2022/03/22 08:02:58;;;;;;;;;;;;;;;;;;5074904;28;20356;-91
2022/03/22 08:05:24;;;;;;;;;;;;;;;;;;5082726;28;20341;-90
2022/03/22 08:07:50;;;;;;;;;;;;;;;;;;5085945;28;20696;-90
2022/03/22 08:10:16;;;;;;;;;;;;;;;;;;5086323;28;20323;-91
2022/03/22 08:12:43;;;;;;;;;;;;;;;;;;5087038;28;20832;-91
2022/03/22 08:15:09;;;;;;;;;;;;;;;;;;5081100;28;20312;-89
2022/03/22 08:17:36;;;;;;;;;;;;;;;;;;5051813;28;20349;-92
2022/03/22 08:20:06;;;;;;;;;;;;;;;;;;5066556;28;20352;-90
2022/03/22 08:22:33;;;;;;;;;;;;;;;;;;5065619;28;20357;-89
2022/03/22 08:24:59;;;;;;;;;;;;;;;;;;5076677;28;20365;-89
2022/03/22 08:27:25;;;;;;;;;;;;;;;;;;5086412;28;20371;-91
2022/03/22 08:29:52;;;;;;;;;;;;;;;;;;5085555;28;20365;-90
2022/03/22 08:32:18;;;;;;;;;;;;;;;;;;5080484;28;20420;-90
2022/03/22 08:34:44;;;;;;;;;;;;;;;;;;5072595;28;20368;-91
2022/03/22 08:37:11;;;;;;;;;;;;;;;;;;5083742;28;20346;-92
2022/03/22 08:39:37;;;;;;;;;;;;;;;;;;5077590;28;20345;-92
2022/03/22 08:42:03;;;;;;;;;;;;;;;;;;5064993;28;20353;-93
2022/03/22 08:44:30;;;;;;;;;;;;;;;;;;5071146;28;20342;-92
2022/03/22 08:46:57;;;;;;;;;;;;;;;;;;5082414;28;20358;-91
2022/03/22 08:49:23;;;;;;;;;;;;;;;;;;5069981;28;20342;-90
2022/03/22 08:51:49;;;;;;;;;;;;;;;;;;5085537;28;20343;-90
2022/03/22 08:54:17;;;;;;;;;;;;;;;;;;5070556;28;20354;-88
2022/03/22 08:56:43;;;;;;;;;;;;;;;;;;5065243;28;20351;-92
2022/03/22 08:59:09;;;;;;;;;;;;;;;;;;5064905;28;20353;-91
2022/03/22 09:01:36;;;;;;;;;;;;;;;;;;5064391;28;20389;-91
2022/03/22 09:06:57;;;;;;;;;;;;;;;;;;4984041;28;20360;-91
2022/03/22 09:09:24;;;;;;;;;;;;;;;;;;5045079;28;20375;-90
2022/03/22 09:11:50;;;;;;;;;;;;;;;;;;5064796;28;20348;-88
2022/03/22 09:14:16;;;;;;;;;;;;;;;;;;5065233;28;20382;-90
2022/03/22 09:16:42;;;;;;;;;;;;;;;;;;5064202;28;20352;-91
2022/03/22 09:19:09;;;;;;;;;;;;;;;;;;5063992;28;20154;-88
2022/03/22 09:21:35;;;;;;;;;;;;;;;;;;5053089;28;20113;-89
2022/03/22 09:24:03;;;;;;;;;;;;;;;;;;5044003;28;19921;-91
2022/03/22 09:26:29;;;;;;;;;;;;;;;;;;5043911;28;19921;-90
2022/03/22 09:28:55;;;;;;;;;;;;;;;;;;5044188;28;19925;-91
2022/03/22 09:31:23;;;;;;;;;;;;;;;;;;5063351;28;19951;-89
2022/03/22 09:33:49;;;;;;;;;;;;;;;;;;5064457;28;20447;-91
2022/03/22 09:36:15;;;;;;;;;;;;;;;;;;5063561;28;19954;-91
2022/03/22 09:38:42;;;;;;;;;;;;;;;;;;5064339;28;19943;-90
2022/03/22 09:41:08;;;;;;;;;;;;;;;;;;5064796;28;19921;-91
2022/03/22 09:43:35;;;;;;;;;;;;;;;;;;5064682;28;20423;-90
2022/03/22 09:46:03;;;;;;;124.75;59.55;;;;;;;;;;5064559;28;20486;-89
2022/03/22 09:48:31;;;;;;;;;;;;;;;;;;5064187;28;20560;-90
2022/03/22 09:53:41;;;;;;;185.00;70.60;;;;;;;;;;5063700;28;20476;-92
2022/03/22 09:56:08;;;;;;;175.20;66.17;;;;;;;;;;5063594;28;20469;-93
2022/03/22 09:58:34;;;;;;;166.00;62.80;;;;;;;;;;5063537;28;20544;-91
2022/03/22 10:01:01;;;;;;;184.43;66.33;;;;;;;;;;5062911;28;20450;-92
2022/03/22 10:03:29;;;;;;;180.37;67.17;;;;;;;;;;5062726;28;20451;-91
2022/03/22 10:05:59;;;;;;;179.90;65.90;;;;;;;;;;5061862;28;21249;-90
2022/03/22 10:08:26;;;;;;;174.47;65.73;;;;;;;;;;5062063;28;20442;-91
2022/03/22 10:10:53;;;;;;;176.47;65.60;;;;;;;;;;5063500;28;20517;-90
2022/03/22 10:13:19;;;;;;;172.07;65.00;;;;;;;;;;5063370;28;20473;-90
2022/03/22 10:15:46;;;;;;;175.40;66.70;;;;;;;;;;5063505;28;20501;-89
2022/03/22 10:18:13;;;;;;;171.27;64.67;;;;;;;;;;5063549;28;20446;-90
2022/03/22 10:20:41;;;;;;;178.73;68.13;;;;;;;;;;5061246;28;20438;-90
2022/03/22 10:23:09;;;;;;;170.80;65.57;;;;;;;;;;5061766;28;20447;-91
2022/03/22 10:25:38;;;;;;;175.70;67.40;;;;;;;;;;5062382;28;20447;-90
2022/03/22 10:28:05;;;;;;;167.90;62.77;;;;;;;;;;5062643;28;20500;-91
2022/03/22 10:30:32;;;;;;;167.37;63.93;;;;;;;;;;5063334;28;20489;-93
2022/03/22 10:33:00;;;;;;;168.57;64.63;;;;;;;;;;5062685;28;20455;-92
2022/03/22 10:35:27;;;;;;;172.50;65.27;;;;;;;;;;5061241;28;20446;-93
2022/03/22 10:37:56;;;;;;;167.00;63.70;;;;;;;;;;5061430;28;20506;-90
2022/03/22 10:40:24;;;;;;;173.77;67.47;;;;;;;;;;5062967;28;20454;-91
2022/03/22 10:42:51;;;;;;;169.40;64.67;;;;;;;;;;5063162;28;20446;-92
2022/03/22 10:45:18;;;;;;;166.87;65.17;;;;;;;;;;5062615;28;20489;-90
2022/03/22 10:47:45;;;;;;;194.80;66.40;;;;;;;;;;5061956;28;20462;-93
2022/03/22 10:50:11;;;;;;;166.87;64.40;;;;;;;;;;5062458;28;20462;-90
2022/03/22 10:52:47;;;;;;;165.17;64.07;;;;;;;;;;5062580;28;20447;-93
2022/03/22 10:55:19;;;;;;;219.13;76.43;;;;;;;;;;5061308;28;20454;-93
2022/03/22 10:57:47;;;;;;;168.23;64.73;;;;;;;;;;5060567;28;20509;-90
2022/03/22 11:00:14;;;;;;;169.50;65.37;;;;;;;;;;5045360;28;20446;-89
2022/03/22 11:02:41;;;;;;;196.40;69.00;;;;;;;;;;5062536;28;20454;-93
2022/03/22 11:05:10;;;;;;;174.20;66.20;;;;;;;;;;5061357;28;20565;-92
2022/03/22 11:07:38;;;;;;;175.20;67.80;;;;;;;;;;5061619;28;21165;-93
2022/03/22 11:10:05;;;;;;;166.83;64.07;;;;;;;;;;5062363;28;21172;-92
2022/03/22 11:12:34;;;;;;;178.33;66.40;;;;;;;;;;5063284;28;20446;-90
2022/03/22 11:15:01;;;;;;;178.30;66.83;;;;;;;;;;5062889;28;20466;-90
2022/03/22 11:17:28;;;;;;;171.87;65.30;;;;;;;;;;5061567;28;20458;-90
2022/03/22 11:19:56;;;;;;;209.40;74.30;;;;;;;;;;5062006;28;20436;-89
2022/03/22 11:22:23;;;;;;;187.17;68.70;;;;;;;;;;5059066;28;20200;-92
2022/03/22 11:24:50;;;;;;;328.95;97.78;;;;;;;;;;5061095;28;20447;-91
2022/03/22 11:27:16;;;;;;;293.90;86.63;;;;;;;;;;5061760;28;20200;-93
2022/03/22 11:29:45;;;;;;;474.95;117.78;;;;;;;;;;5061793;28;20473;-92
2022/03/22 11:34:57;;;;;;;204.50;70.97;;;;;;;;;;5060389;28;20232;-89
2022/03/22 11:37:30;;;;;;;205.27;69.63;;;;;;;;;;5059136;28;20449;-91
2022/03/22 11:42:51;;;;;;;230.80;71.70;;;;;;;;;;5042567;28;20931;-88
2022/03/22 11:45:20;;;;;;;227.93;70.30;;;;;;;;;;5051742;28;20442;-91
2022/03/22 11:47:49;;;;;;;212.90;70.60;;;;;;;;;;5061088;28;20488;-89
2022/03/22 11:50:17;;;;;;;202.87;71.37;;;;;;;;;;5057946;28;20435;-88
2022/03/22 11:52:44;;;;;;;270.87;82.33;;;;;;;;;;5060309;28;20442;-90
2022/03/22 11:55:15;;;;;;;195.90;76.73;;;;;;;;;;5062527;28;20472;-90
2022/03/22 11:57:43;;;;;;;207.33;88.90;;;;;;;;;;5082418;28;20504;-92
2022/03/22 12:00:11;;;;;;;261.43;114.23;;;;;;;;;;5084397;28;20475;-90
2022/03/22 12:02:40;;;;;;;228.90;91.60;;;;;;;;;;5077840;28;20478;-94
2022/03/22 12:05:07;;;;;;;222.03;82.60;;;;;;;;;;5064384;28;20447;-90
2022/03/22 12:07:36;;;;;;;246.43;98.83;;;;;;;;;;5043556;28;20459;-92
2022/03/22 12:10:04;;;;;;;188.73;69.50;;;;;;;;;;5041131;28;20475;-91
2022/03/22 12:12:32;;;;;;;191.20;71.20;;;;;;;;;;5062645;28;20518;-90
2022/03/22 12:15:02;;;;;;;189.57;69.87;;;;;;;;;;5063683;28;20451;-95
2022/03/22 12:17:29;;;;;;;187.10;65.57;;;;;;;;;;5062762;28;20844;-88
2022/03/22 12:19:59;;;;;;;185.93;67.60;;;;;;;;;;5065060;28;20450;-90
2022/03/22 12:22:26;;;;;;;331.77;128.98;;;;;;;;;;5076759;28;20853;-90
2022/03/22 12:24:53;;;;;;;210.90;73.90;;;;;;;;;;5045192;28;20196;-94
2022/03/22 12:27:19;;;;;;;153.97;64.27;;;;;;;;;;5058638;28;20727;-90
2022/03/22 12:29:47;;;;;;;157.30;65.20;;;;;;;;;;5061708;28;20451;-90
2022/03/22 12:32:15;;;;;;;160.40;67.23;;;;;;;;;;5060685;28;20494;-91
2022/03/22 12:34:43;;;;;;;160.80;64.33;;;;;;;;;;5064265;28;21029;-92
2022/03/22 12:37:12;;;;;;;157.90;65.30;;;;;;;;;;5079484;28;20483;-95
2022/03/22 12:39:41;;;;;;;157.67;65.83;;;;;;;;;;5087649;28;20475;-94
2022/03/22 12:42:08;;;;;;;157.10;64.77;;;;;;;;;;5088475;28;20442;-96
2022/03/22 12:44:35;;;;;;;157.60;64.77;;;;;;;;;;5086124;28;20441;-95
2022/03/22 12:47:02;;;;;;;156.60;65.60;;;;;;;;;;5077851;28;20485;-91
2022/03/22 12:49:28;;;;;;;160.30;66.03;;;;;;;;;;5062576;28;20927;-91
2022/03/22 12:51:56;;;;;;;315.17;103.97;;;;;;;;;;5068913;28;20516;-91
2022/03/22 12:54:30;;;;;;;160.40;64.17;;;;;;;;;;5084230;28;20449;-91
2022/03/22 12:57:00;;;;;;;163.50;68.20;;;;;;;;;;5083640;28;20456;-91
2022/03/22 12:59:27;;;;;;;159.33;64.50;;;;;;;;;;5084985;28;20441;-90
2022/03/22 13:01:57;;;;;;;161.50;66.77;;;;;;;;;;5081516;28;20449;-89
2022/03/22 13:04:25;;;;;;;158.43;65.30;;;;;;;;;;5064115;28;20442;-89
2022/03/22 13:06:56;;;;;;;159.07;65.70;;;;;;;;;;5073530;28;20438;-88
2022/03/22 13:12:11;;;;;;;154.90;63.10;;;;;;;;;;5055913;28;20485;-88
2022/03/22 13:17:22;;;;;;;157.80;65.77;;;;;;;;;;5078016;28;20516;-92
2022/03/22 13:19:48;;;;;;;153.50;63.30;;;;;;;;;;5063032;28;20450;-91
2022/03/22 13:22:18;;;;;;;161.50;67.97;;;;;;;;;;5077132;28;20446;-90
2022/03/22 13:24:47;;;;;;;160.10;66.40;;;;;;;;;;5084068;28;20445;-90
2022/03/22 13:27:13;;;;;;;154.97;64.37;;;;;;;;;;5083575;28;20438;-90
2022/03/22 13:29:40;;;;;;;157.20;65.70;;;;;;;;;;5083572;28;20484;-90
2022/03/22 13:32:08;;;;;;;157.40;65.50;;;;;;;;;;5080082;28;20552;-92
2022/03/22 13:34:35;;;;;;;163.97;67.97;;;;;;;;;;5061136;28;20447;-94
2022/03/22 13:37:04;;;;;;;159.47;67.00;;;;;;;;;;5057342;28;20466;-92
2022/03/22 13:39:31;;;;;;;157.80;65.30;;;;;;;;;;5042745;28;20502;-92
2022/03/22 13:42:08;;;;;;;158.07;66.00;;;;;;;;;;5061890;28;20438;-91
2022/03/22 13:44:34;;;;;;;158.77;65.27;;;;;;;;;;5082498;28;20461;-90
2022/03/22 13:47:01;;;;;;;165.30;67.80;;;;;;;;;;5060811;28;20455;-91
2022/03/22 13:49:34;;;;;;;164.77;70.37;;;;;;;;;;5062270;28;20512;-90
2022/03/22 13:52:00;;;;;;;162.77;69.47;;;;;;;;;;5061748;28;20577;-88
2022/03/22 13:54:27;;;;;;;167.37;69.13;;;;;;;;;;5061975;28;21323;-88
2022/03/22 13:57:04;;;;;;;172.70;75.17;;;;;;;;;;5057777;28;20484;-91
2022/03/22 13:59:38;;;;;;;178.53;70.73;;;;;;;;;;5055035;28;20446;-88
2022/03/22 14:02:05;;;;;;;168.10;68.67;;;;;;;;;;5061073;28;20489;-91
2022/03/22 14:04:34;;;;;;;159.00;65.27;;;;;;;;;;5063321;28;20453;-89
2022/03/22 14:07:01;;;;;;;159.00;65.90;;;;;;;;;;5063078;28;20443;-86
2022/03/22 14:09:27;;;;;;;165.17;69.87;;;;;;;;;;5062418;28;20500;-86
2022/03/22 14:11:54;;;;;;;171.50;67.90;;;;;;;;;;5062901;28;20948;-86
2022/03/22 14:14:20;;;;;;;167.43;70.40;;;;;;;;;;5062535;28;20500;-84
2022/03/22 14:16:48;;;;;;;166.13;69.40;;;;;;;;;;5061158;28;20455;-85
2022/03/22 14:19:15;;;;;;;167.63;69.43;;;;;;;;;;5062809;28;20486;-85
2022/03/22 14:21:41;;;;;;;159.43;64.57;;;;;;;;;;5062957;28;20447;-85
2022/03/22 14:24:08;;;;;;;160.97;66.30;;;;;;;;;;5062939;28;20454;-89
2022/03/22 14:26:34;;;;;;;163.30;66.07;;;;;;;;;;5065000;28;20434;-88
2022/03/22 14:29:01;;;;;;;157.87;65.23;;;;;;;;;;5082527;28;20449;-88
2022/03/22 14:31:29;;;;;;;174.13;70.70;;;;;;;;;;5081387;28;20481;-87
2022/03/22 14:33:56;;;;;;;171.63;70.10;;;;;;;;;;5063361;28;20521;-90
2022/03/22 14:36:22;;;;;;;161.30;66.30;;;;;;;;;;5062624;28;20446;-87
2022/03/22 14:38:49;;;;;;;157.47;63.57;;;;;;;;;;5082689;28;21032;-85
2022/03/22 14:41:25;;;;;;;167.97;69.50;;;;;;;;;;5083291;28;20225;-89
2022/03/22 14:43:53;;;;;;;164.53;63.37;;;;;;;;;;5083213;28;20520;-89
2022/03/22 14:46:19;;;;;;;158.60;65.70;;;;;;;;;;5081837;28;20445;-88
2022/03/22 14:48:49;;;;;;;159.80;65.47;;;;;;;;;;5063553;28;20446;-90
2022/03/22 14:54:02;;;;;;;163.60;69.10;;;;;;;;;;5061337;28;20447;-88
2022/03/22 14:54:04;;;;;;;161.83;67.97;;;;;;;;;;5081909;28;20449;-89
2022/03/22 14:59:16;;;;;;;160.27;67.07;;;;;;;;;;5081598;28;20245;-92
2022/03/22 15:01:42;;;;;;;161.90;65.27;;;;;;;;;;5082920;28;20446;-90
2022/03/22 15:04:09;;;;;;;162.13;67.20;;;;;;;;;;5070300;28;20454;-94
2022/03/22 15:06:38;;;;;;;168.03;70.90;;;;;;;;;;5063559;28;20450;-94
2022/03/22 15:09:11;;;;;;;161.23;64.60;;;;;;;;;;5084090;28;20453;-96
2022/03/22 15:11:39;;;;;;;161.40;66.40;;;;;;;;;;5067463;28;20581;-95